METAR Data
IDs: Format: Raw Decoded Include TAF

Data at: 1710 UTC 18 Feb 2019

METAR for:KMIW (Marshalltown Muni, IA, US)
Text:KMIW 181653Z AUTO 34007KT 10SM CLR M11/M13 A3042 RMK AO2 SLP320 T11061133
Temperature:-10.6°C ( 13°F)
Dewpoint:-13.3°C ( 8°F) [RH = 80%]
Pressure (altimeter):30.42 inches Hg (1030.2 mb) [Sea level pressure: 1032.0 mb]
Winds:from the NNW (340 degrees) at 8 MPH (7 knots; 3.6 m/s)
Visibility:10 or more sm (16+ km)
Ceiling:at least 12,000 feet AGL
Clouds:sky clear below 12,000 feet AGL
QC Flag:automated observation with no human augmentation